Terminal Aerodrome Forecast
Issued by NWS

Home | Current Version | Previous Version | Text Only | Print | Product List | Glossary On
Versions: 1 2 3 4 5 6 7 8 9 10 11 12 13 14 15 16
000
FTUS43 KICT 290528 AAA
TAFCNU
TAF AMD
KCNU 290528Z 2905/3006 01012KT P6SM BKN005
     FM290700 03015G22KT 4SM BR VCTS OVC005CB
      TEMPO 2908/2911 1SM +TSRA BR OVC008CB
     FM291100 03015G22KT P6SM -SHRA OVC008=

USA.gov is the U.S. government's official web portal to all federal, state and local government web resources and services.